sensor_id;sensor_type;location;lat;lon;timestamp;temperature;humidity
51567;DHT22;37657;53.182;5.638;2023-08-20T00:00:34;16.10;99.90
51567;DHT22;37657;53.182;5.638;2023-08-20T00:03:12;16.00;99.90
51567;DHT22;37657;53.182;5.638;2023-08-20T00:05:38;16.00;99.90
51567;DHT22;37657;53.182;5.638;2023-08-20T00:08:04;15.90;99.90
51567;DHT22;37657;53.182;5.638;2023-08-20T00:10:31;16.00;99.90
51567;DHT22;37657;53.182;5.638;2023-08-20T00:12:57;16.10;99.90
51567;DHT22;37657;53.182;5.638;2023-08-20T00:15:22;16.10;99.90
51567;DHT22;37657;53.182;5.638;2023-08-20T00:17:52;16.00;99.90
51567;DHT22;37657;53.182;5.638;2023-08-20T00:20:18;16.00;99.90
51567;DHT22;37657;53.182;5.638;2023-08-20T00:22:44;15.90;99.90
51567;DHT22;37657;53.182;5.638;2023-08-20T00:25:15;15.90;99.90
51567;DHT22;37657;53.182;5.638;2023-08-20T00:27:41;15.90;99.90
51567;DHT22;37657;53.182;5.638;2023-08-20T00:30:08;15.80;99.90
51567;DHT22;37657;53.182;5.638;2023-08-20T00:32:34;15.70;99.90
51567;DHT22;37657;53.182;5.638;2023-08-20T00:35:00;15.70;99.90
51567;DHT22;37657;53.182;5.638;2023-08-20T00:37:26;15.70;99.90
51567;DHT22;37657;53.182;5.638;2023-08-20T00:39:51;15.70;99.90
51567;DHT22;37657;53.182;5.638;2023-08-20T00:42:17;15.70;99.90
51567;DHT22;37657;53.182;5.638;2023-08-20T00:44:43;15.70;99.90
51567;DHT22;37657;53.182;5.638;2023-08-20T00:47:10;15.60;99.90
51567;DHT22;37657;53.182;5.638;2023-08-20T00:49:37;15.60;99.90
51567;DHT22;37657;53.182;5.638;2023-08-20T00:52:04;15.70;99.90
51567;DHT22;37657;53.182;5.638;2023-08-20T00:54:32;15.60;99.90
51567;DHT22;37657;53.182;5.638;2023-08-20T00:56:59;15.80;99.90
51567;DHT22;37657;53.182;5.638;2023-08-20T00:59:27;15.80;99.90
51567;DHT22;37657;53.182;5.638;2023-08-20T01:01:53;15.90;99.90
51567;DHT22;37657;53.182;5.638;2023-08-20T01:04:18;16.00;99.90
51567;DHT22;37657;53.182;5.638;2023-08-20T01:09:31;16.00;99.90
51567;DHT22;37657;53.182;5.638;2023-08-20T01:12:00;16.10;99.90
51567;DHT22;37657;53.182;5.638;2023-08-20T01:14:27;16.10;99.90
51567;DHT22;37657;53.182;5.638;2023-08-20T01:16:53;16.20;99.90
51567;DHT22;37657;53.182;5.638;2023-08-20T01:19:20;16.20;99.90
51567;DHT22;37657;53.182;5.638;2023-08-20T01:28:26;16.30;99.90
51567;DHT22;37657;53.182;5.638;2023-08-20T01:30:58;16.30;99.90
51567;DHT22;37657;53.182;5.638;2023-08-20T01:33:24;16.40;99.90
51567;DHT22;37657;53.182;5.638;2023-08-20T01:35:51;16.40;99.90
51567;DHT22;37657;53.182;5.638;2023-08-20T01:38:17;16.40;99.90
51567;DHT22;37657;53.182;5.638;2023-08-20T01:40:42;16.50;99.90
51567;DHT22;37657;53.182;5.638;2023-08-20T01:43:08;16.60;99.90
51567;DHT22;37657;53.182;5.638;2023-08-20T01:45:34;16.50;99.90
51567;DHT22;37657;53.182;5.638;2023-08-20T01:47:59;16.60;99.90
51567;DHT22;37657;53.182;5.638;2023-08-20T01:50:25;16.50;99.90
51567;DHT22;37657;53.182;5.638;2023-08-20T01:52:51;16.70;99.90
51567;DHT22;37657;53.182;5.638;2023-08-20T01:55:16;16.40;99.90
51567;DHT22;37657;53.182;5.638;2023-08-20T01:57:42;16.70;99.90
51567;DHT22;37657;53.182;5.638;2023-08-20T02:00:09;16.60;99.90
51567;DHT22;37657;53.182;5.638;2023-08-20T02:02:34;16.70;99.90
51567;DHT22;37657;53.182;5.638;2023-08-20T02:05:00;16.70;99.90
51567;DHT22;37657;53.182;5.638;2023-08-20T02:07:26;16.70;99.90
51567;DHT22;37657;53.182;5.638;2023-08-20T02:09:51;16.50;99.90
51567;DHT22;37657;53.182;5.638;2023-08-20T02:12:17;16.40;99.90
51567;DHT22;37657;53.182;5.638;2023-08-20T02:14:43;16.40;99.90
51567;DHT22;37657;53.182;5.638;2023-08-20T02:17:08;16.30;99.90
51567;DHT22;37657;53.182;5.638;2023-08-20T02:19:34;16.20;99.90
51567;DHT22;37657;53.182;5.638;2023-08-20T02:22:00;16.00;99.90
51567;DHT22;37657;53.182;5.638;2023-08-20T02:24:25;15.90;99.90
51567;DHT22;37657;53.182;5.638;2023-08-20T02:26:51;15.70;99.90
51567;DHT22;37657;53.182;5.638;2023-08-20T02:29:17;15.90;99.90
51567;DHT22;37657;53.182;5.638;2023-08-20T02:31:42;15.90;99.90
51567;DHT22;37657;53.182;5.638;2023-08-20T02:34:08;16.00;99.90
51567;DHT22;37657;53.182;5.638;2023-08-20T02:36:33;16.00;99.90
51567;DHT22;37657;53.182;5.638;2023-08-20T02:38:59;15.80;99.90
51567;DHT22;37657;53.182;5.638;2023-08-20T02:41:24;16.00;99.90
51567;DHT22;37657;53.182;5.638;2023-08-20T02:43:50;15.70;99.90
51567;DHT22;37657;53.182;5.638;2023-08-20T02:46:15;15.90;99.90
51567;DHT22;37657;53.182;5.638;2023-08-20T02:48:41;15.80;99.90
51567;DHT22;37657;53.182;5.638;2023-08-20T02:51:06;15.80;99.90
51567;DHT22;37657;53.182;5.638;2023-08-20T02:53:32;15.80;99.90
51567;DHT22;37657;53.182;5.638;2023-08-20T02:55:58;15.60;99.90
51567;DHT22;37657;53.182;5.638;2023-08-20T02:58:24;15.70;99.90
51567;DHT22;37657;53.182;5.638;2023-08-20T03:00:49;15.70;99.90
51567;DHT22;37657;53.182;5.638;2023-08-20T03:03:15;15.50;99.90
51567;DHT22;37657;53.182;5.638;2023-08-20T03:05:42;15.70;99.90
51567;DHT22;37657;53.182;5.638;2023-08-20T03:08:08;15.70;99.90
51567;DHT22;37657;53.182;5.638;2023-08-20T03:10:34;15.60;99.90
51567;DHT22;37657;53.182;5.638;2023-08-20T03:13:03;15.40;99.90
51567;DHT22;37657;53.182;5.638;2023-08-20T03:15:29;15.50;99.90
51567;DHT22;37657;53.182;5.638;2023-08-20T03:17:55;15.40;99.90
51567;DHT22;37657;53.182;5.638;2023-08-20T03:20:21;15.40;99.90
51567;DHT22;37657;53.182;5.638;2023-08-20T03:22:47;15.30;99.90
51567;DHT22;37657;53.182;5.638;2023-08-20T03:25:12;15.60;99.90
51567;DHT22;37657;53.182;5.638;2023-08-20T03:27:38;15.40;99.90
51567;DHT22;37657;53.182;5.638;2023-08-20T03:30:04;15.60;99.90
51567;DHT22;37657;53.182;5.638;2023-08-20T03:32:30;15.50;99.90
51567;DHT22;37657;53.182;5.638;2023-08-20T03:34:56;15.60;99.90
51567;DHT22;37657;53.182;5.638;2023-08-20T03:37:22;15.70;99.90
51567;DHT22;37657;53.182;5.638;2023-08-20T03:39:48;15.50;99.90
51567;DHT22;37657;53.182;5.638;2023-08-20T03:42:13;15.70;99.90
51567;DHT22;37657;53.182;5.638;2023-08-20T03:44:39;15.90;99.90
51567;DHT22;37657;53.182;5.638;2023-08-20T03:47:05;15.80;99.90
51567;DHT22;37657;53.182;5.638;2023-08-20T03:49:30;15.70;99.90
51567;DHT22;37657;53.182;5.638;2023-08-20T03:51:56;15.90;99.90
51567;DHT22;37657;53.182;5.638;2023-08-20T03:54:21;16.00;99.90
51567;DHT22;37657;53.182;5.638;2023-08-20T03:56:47;16.00;99.90
51567;DHT22;37657;53.182;5.638;2023-08-20T03:59:13;15.80;99.90
51567;DHT22;37657;53.182;5.638;2023-08-20T04:01:38;16.10;99.90
51567;DHT22;37657;53.182;5.638;2023-08-20T04:04:04;16.00;99.90
51567;DHT22;37657;53.182;5.638;2023-08-20T04:06:30;15.80;99.90
51567;DHT22;37657;53.182;5.638;2023-08-20T04:08:56;16.10;99.90
51567;DHT22;37657;53.182;5.638;2023-08-20T04:11:21;15.80;99.90
51567;DHT22;37657;53.182;5.638;2023-08-20T04:13:47;16.00;99.90
51567;DHT22;37657;53.182;5.638;2023-08-20T04:16:13;16.10;99.90
51567;DHT22;37657;53.182;5.638;2023-08-20T04:18:39;16.10;99.90
51567;DHT22;37657;53.182;5.638;2023-08-20T04:21:05;15.90;99.90
51567;DHT22;37657;53.182;5.638;2023-08-20T04:23:31;15.60;99.90
51567;DHT22;37657;53.182;5.638;2023-08-20T04:25:56;15.50;99.90
51567;DHT22;37657;53.182;5.638;2023-08-20T04:28:22;15.60;99.90
51567;DHT22;37657;53.182;5.638;2023-08-20T04:30:48;15.40;99.90
51567;DHT22;37657;53.182;5.638;2023-08-20T04:33:14;15.50;99.90
51567;DHT22;37657;53.182;5.638;2023-08-20T04:35:40;15.50;99.90
51567;DHT22;37657;53.182;5.638;2023-08-20T04:38:05;15.50;99.90
51567;DHT22;37657;53.182;5.638;2023-08-20T04:40:31;15.50;99.90
51567;DHT22;37657;53.182;5.638;2023-08-20T04:42:57;15.70;99.90
51567;DHT22;37657;53.182;5.638;2023-08-20T04:45:22;15.40;99.90
51567;DHT22;37657;53.182;5.638;2023-08-20T04:47:48;15.40;99.90
51567;DHT22;37657;53.182;5.638;2023-08-20T04:50:13;15.60;99.90
51567;DHT22;37657;53.182;5.638;2023-08-20T04:52:39;15.60;99.90
51567;DHT22;37657;53.182;5.638;2023-08-20T04:55:05;15.40;99.90
51567;DHT22;37657;53.182;5.638;2023-08-20T04:57:34;15.30;99.90
51567;DHT22;37657;53.182;5.638;2023-08-20T05:00:00;15.50;99.90
51567;DHT22;37657;53.182;5.638;2023-08-20T05:02:26;15.60;99.90
51567;DHT22;37657;53.182;5.638;2023-08-20T05:04:51;15.40;99.90
51567;DHT22;37657;53.182;5.638;2023-08-20T05:07:17;15.50;99.90
51567;DHT22;37657;53.182;5.638;2023-08-20T05:09:43;15.40;99.90
51567;DHT22;37657;53.182;5.638;2023-08-20T05:12:08;15.40;99.90
51567;DHT22;37657;53.182;5.638;2023-08-20T05:14:34;15.30;99.90
51567;DHT22;37657;53.182;5.638;2023-08-20T05:16:59;15.00;99.90
51567;DHT22;37657;53.182;5.638;2023-08-20T05:19:25;15.40;99.90
51567;DHT22;37657;53.182;5.638;2023-08-20T05:21:52;15.30;99.90
51567;DHT22;37657;53.182;5.638;2023-08-20T05:24:21;15.70;99.90
51567;DHT22;37657;53.182;5.638;2023-08-20T05:26:49;15.50;99.90
51567;DHT22;37657;53.182;5.638;2023-08-20T05:29:15;15.60;99.90
51567;DHT22;37657;53.182;5.638;2023-08-20T05:31:40;15.60;99.90
51567;DHT22;37657;53.182;5.638;2023-08-20T05:34:06;15.80;99.90
51567;DHT22;37657;53.182;5.638;2023-08-20T05:36:31;15.80;99.90
51567;DHT22;37657;53.182;5.638;2023-08-20T05:38:57;16.10;99.90
51567;DHT22;37657;53.182;5.638;2023-08-20T05:41:22;16.10;99.90
51567;DHT22;37657;53.182;5.638;2023-08-20T05:43:48;16.10;99.90
51567;DHT22;37657;53.182;5.638;2023-08-20T05:46:13;16.10;99.90
51567;DHT22;37657;53.182;5.638;2023-08-20T05:48:39;16.50;99.90
51567;DHT22;37657;53.182;5.638;2023-08-20T05:51:04;16.30;99.90
51567;DHT22;37657;53.182;5.638;2023-08-20T05:53:30;16.60;99.90
51567;DHT22;37657;53.182;5.638;2023-08-20T05:55:55;16.90;99.90
51567;DHT22;37657;53.182;5.638;2023-08-20T05:58:21;16.90;99.90
51567;DHT22;37657;53.182;5.638;2023-08-20T06:00:46;16.70;99.90
51567;DHT22;37657;53.182;5.638;2023-08-20T06:03:12;16.80;99.90
51567;DHT22;37657;53.182;5.638;2023-08-20T06:05:38;16.90;99.90
51567;DHT22;37657;53.182;5.638;2023-08-20T06:08:04;17.30;99.90
51567;DHT22;37657;53.182;5.638;2023-08-20T06:10:29;17.40;99.90
51567;DHT22;37657;53.182;5.638;2023-08-20T06:12:55;17.30;99.90
51567;DHT22;37657;53.182;5.638;2023-08-20T06:15:22;17.30;99.90
51567;DHT22;37657;53.182;5.638;2023-08-20T06:17:47;17.50;99.90
51567;DHT22;37657;53.182;5.638;2023-08-20T06:20:13;17.50;99.90
51567;DHT22;37657;53.182;5.638;2023-08-20T06:22:38;17.80;99.90
51567;DHT22;37657;53.182;5.638;2023-08-20T06:25:05;17.70;99.90
51567;DHT22;37657;53.182;5.638;2023-08-20T06:27:30;17.90;99.90
51567;DHT22;37657;53.182;5.638;2023-08-20T06:29:56;17.80;99.90
51567;DHT22;37657;53.182;5.638;2023-08-20T06:32:26;18.00;99.90
51567;DHT22;37657;53.182;5.638;2023-08-20T06:34:51;18.20;99.90
51567;DHT22;37657;53.182;5.638;2023-08-20T06:37:17;18.20;99.90
51567;DHT22;37657;53.182;5.638;2023-08-20T06:39:42;18.20;99.90
51567;DHT22;37657;53.182;5.638;2023-08-20T06:42:08;18.60;99.90
51567;DHT22;37657;53.182;5.638;2023-08-20T06:44:33;18.30;99.90
51567;DHT22;37657;53.182;5.638;2023-08-20T06:47:00;18.50;99.90
51567;DHT22;37657;53.182;5.638;2023-08-20T06:49:26;18.40;99.90
51567;DHT22;37657;53.182;5.638;2023-08-20T06:51:52;18.80;99.90
51567;DHT22;37657;53.182;5.638;2023-08-20T06:54:17;19.00;99.90
51567;DHT22;37657;53.182;5.638;2023-08-20T06:56:43;18.60;99.90
51567;DHT22;37657;53.182;5.638;2023-08-20T06:59:08;18.80;99.90
51567;DHT22;37657;53.182;5.638;2023-08-20T07:01:35;19.20;99.90
51567;DHT22;37657;53.182;5.638;2023-08-20T07:04:01;19.00;99.90
51567;DHT22;37657;53.182;5.638;2023-08-20T07:06:26;19.40;99.90
51567;DHT22;37657;53.182;5.638;2023-08-20T07:08:52;19.20;99.90
51567;DHT22;37657;53.182;5.638;2023-08-20T07:11:17;19.10;99.90
51567;DHT22;37657;53.182;5.638;2023-08-20T07:13:43;19.50;99.90
51567;DHT22;37657;53.182;5.638;2023-08-20T07:16:09;19.40;99.90
51567;DHT22;37657;53.182;5.638;2023-08-20T07:18:34;19.40;99.90
51567;DHT22;37657;53.182;5.638;2023-08-20T07:21:00;19.40;99.90
51567;DHT22;37657;53.182;5.638;2023-08-20T07:23:25;19.40;99.90
51567;DHT22;37657;53.182;5.638;2023-08-20T07:25:51;19.60;99.90
51567;DHT22;37657;53.182;5.638;2023-08-20T07:28:17;19.80;99.90
51567;DHT22;37657;53.182;5.638;2023-08-20T07:30:52;19.80;99.90
51567;DHT22;37657;53.182;5.638;2023-08-20T07:33:17;19.80;99.90
51567;DHT22;37657;53.182;5.638;2023-08-20T07:35:43;19.80;99.90
51567;DHT22;37657;53.182;5.638;2023-08-20T07:38:09;19.70;99.90
51567;DHT22;37657;53.182;5.638;2023-08-20T07:40:34;19.60;99.90
51567;DHT22;37657;53.182;5.638;2023-08-20T07:43:00;19.70;99.90
51567;DHT22;37657;53.182;5.638;2023-08-20T07:45:25;19.90;99.90
51567;DHT22;37657;53.182;5.638;2023-08-20T07:47:51;19.70;99.90
51567;DHT22;37657;53.182;5.638;2023-08-20T07:50:16;19.70;99.90
51567;DHT22;37657;53.182;5.638;2023-08-20T07:52:42;19.80;99.90
51567;DHT22;37657;53.182;5.638;2023-08-20T07:55:08;20.10;99.90
51567;DHT22;37657;53.182;5.638;2023-08-20T07:57:33;20.10;99.90
51567;DHT22;37657;53.182;5.638;2023-08-20T07:59:59;20.30;99.90
51567;DHT22;37657;53.182;5.638;2023-08-20T08:02:24;20.30;99.90
51567;DHT22;37657;53.182;5.638;2023-08-20T08:04:50;20.10;99.90
51567;DHT22;37657;53.182;5.638;2023-08-20T08:07:15;20.10;99.90
51567;DHT22;37657;53.182;5.638;2023-08-20T08:09:41;20.30;99.90
51567;DHT22;37657;53.182;5.638;2023-08-20T08:12:07;20.30;99.90
51567;DHT22;37657;53.182;5.638;2023-08-20T08:14:32;20.30;99.90
51567;DHT22;37657;53.182;5.638;2023-08-20T08:16:58;20.40;99.90
51567;DHT22;37657;53.182;5.638;2023-08-20T08:19:23;20.60;99.90
51567;DHT22;37657;53.182;5.638;2023-08-20T08:21:49;20.60;99.90
51567;DHT22;37657;53.182;5.638;2023-08-20T08:24:15;20.60;99.90
51567;DHT22;37657;53.182;5.638;2023-08-20T08:26:41;20.80;99.90
51567;DHT22;37657;53.182;5.638;2023-08-20T08:29:07;20.80;99.90
51567;DHT22;37657;53.182;5.638;2023-08-20T08:31:33;20.90;99.90
51567;DHT22;37657;53.182;5.638;2023-08-20T08:33:59;21.00;99.90
51567;DHT22;37657;53.182;5.638;2023-08-20T08:36:25;21.10;99.90
51567;DHT22;37657;53.182;5.638;2023-08-20T08:38:51;21.20;99.90
51567;DHT22;37657;53.182;5.638;2023-08-20T08:41:18;21.20;99.90
51567;DHT22;37657;53.182;5.638;2023-08-20T08:43:46;21.20;99.90
51567;DHT22;37657;53.182;5.638;2023-08-20T08:46:13;21.40;99.90
51567;DHT22;37657;53.182;5.638;2023-08-20T08:48:45;21.40;99.90
51567;DHT22;37657;53.182;5.638;2023-08-20T08:51:13;21.50;99.90
51567;DHT22;37657;53.182;5.638;2023-08-20T08:53:39;21.70;99.90
51567;DHT22;37657;53.182;5.638;2023-08-20T08:56:05;21.60;99.90
51567;DHT22;37657;53.182;5.638;2023-08-20T08:58:33;21.70;99.90
51567;DHT22;37657;53.182;5.638;2023-08-20T09:00:59;21.80;99.90
51567;DHT22;37657;53.182;5.638;2023-08-20T09:03:26;21.80;99.90
51567;DHT22;37657;53.182;5.638;2023-08-20T09:06:00;22.00;99.90
51567;DHT22;37657;53.182;5.638;2023-08-20T09:08:29;22.20;99.90
51567;DHT22;37657;53.182;5.638;2023-08-20T09:10:57;22.20;99.90
51567;DHT22;37657;53.182;5.638;2023-08-20T09:13:43;22.20;99.90
51567;DHT22;37657;53.182;5.638;2023-08-20T09:16:10;22.20;99.90
51567;DHT22;37657;53.182;5.638;2023-08-20T09:18:45;22.20;99.90
51567;DHT22;37657;53.182;5.638;2023-08-20T09:21:12;22.20;99.90
51567;DHT22;37657;53.182;5.638;2023-08-20T09:23:38;22.10;99.90
51567;DHT22;37657;53.182;5.638;2023-08-20T09:26:06;22.20;99.90
51567;DHT22;37657;53.182;5.638;2023-08-20T09:28:44;22.10;99.90
51567;DHT22;37657;53.182;5.638;2023-08-20T09:31:11;21.80;99.90
51567;DHT22;37657;53.182;5.638;2023-08-20T09:33:37;21.70;99.90
51567;DHT22;37657;53.182;5.638;2023-08-20T09:36:07;21.70;99.90
51567;DHT22;37657;53.182;5.638;2023-08-20T09:38:36;21.80;99.90
51567;DHT22;37657;53.182;5.638;2023-08-20T09:41:05;21.90;99.90
51567;DHT22;37657;53.182;5.638;2023-08-20T09:43:37;21.90;99.90
51567;DHT22;37657;53.182;5.638;2023-08-20T09:46:05;22.20;99.90
51567;DHT22;37657;53.182;5.638;2023-08-20T09:48:35;22.30;99.90
51567;DHT22;37657;53.182;5.638;2023-08-20T09:51:10;22.20;99.90
51567;DHT22;37657;53.182;5.638;2023-08-20T09:53:53;22.10;99.90
51567;DHT22;37657;53.182;5.638;2023-08-20T09:56:26;22.20;99.90
51567;DHT22;37657;53.182;5.638;2023-08-20T09:58:53;22.10;99.90
51567;DHT22;37657;53.182;5.638;2023-08-20T10:01:19;22.20;99.90
51567;DHT22;37657;53.182;5.638;2023-08-20T10:03:45;22.20;99.90
51567;DHT22;37657;53.182;5.638;2023-08-20T10:06:11;22.30;99.90
51567;DHT22;37657;53.182;5.638;2023-08-20T10:08:37;22.40;99.90
51567;DHT22;37657;53.182;5.638;2023-08-20T10:11:03;22.50;99.90
51567;DHT22;37657;53.182;5.638;2023-08-20T10:13:29;22.60;99.90
51567;DHT22;37657;53.182;5.638;2023-08-20T10:15:56;22.60;99.90
51567;DHT22;37657;53.182;5.638;2023-08-20T10:18:22;22.70;99.90
51567;DHT22;37657;53.182;5.638;2023-08-20T10:20:51;22.80;99.90
51567;DHT22;37657;53.182;5.638;2023-08-20T10:23:20;23.00;99.90
51567;DHT22;37657;53.182;5.638;2023-08-20T10:25:48;23.20;99.90
51567;DHT22;37657;53.182;5.638;2023-08-20T10:28:26;23.20;99.90
51567;DHT22;37657;53.182;5.638;2023-08-20T10:31:11;23.20;99.90
51567;DHT22;37657;53.182;5.638;2023-08-20T10:38:44;23.50;99.90
51567;DHT22;37657;53.182;5.638;2023-08-20T10:41:10;23.50;99.90
51567;DHT22;37657;53.182;5.638;2023-08-20T10:43:45;23.50;99.90
51567;DHT22;37657;53.182;5.638;2023-08-20T10:46:18;23.50;99.90
51567;DHT22;37657;53.182;5.638;2023-08-20T10:51:15;23.60;99.90
51567;DHT22;37657;53.182;5.638;2023-08-20T10:53:43;23.60;99.90
51567;DHT22;37657;53.182;5.638;2023-08-20T10:56:16;23.60;99.90
51567;DHT22;37657;53.182;5.638;2023-08-20T10:58:46;23.60;99.90
51567;DHT22;37657;53.182;5.638;2023-08-20T11:01:13;23.50;99.90
51567;DHT22;37657;53.182;5.638;2023-08-20T11:03:42;23.50;99.90
51567;DHT22;37657;53.182;5.638;2023-08-20T11:06:07;23.40;99.90
51567;DHT22;37657;53.182;5.638;2023-08-20T11:08:34;23.40;99.90
51567;DHT22;37657;53.182;5.638;2023-08-20T11:10:59;23.50;99.90
51567;DHT22;37657;53.182;5.638;2023-08-20T11:13:25;23.60;99.90
51567;DHT22;37657;53.182;5.638;2023-08-20T11:15:51;23.60;99.90
51567;DHT22;37657;53.182;5.638;2023-08-20T11:18:17;23.60;99.90
51567;DHT22;37657;53.182;5.638;2023-08-20T11:20:43;23.50;99.90
51567;DHT22;37657;53.182;5.638;2023-08-20T11:23:08;23.40;99.90
51567;DHT22;37657;53.182;5.638;2023-08-20T11:25:41;23.30;99.90
51567;DHT22;37657;53.182;5.638;2023-08-20T11:28:07;23.30;99.90
51567;DHT22;37657;53.182;5.638;2023-08-20T11:30:33;23.30;99.90
51567;DHT22;37657;53.182;5.638;2023-08-20T11:32:58;23.20;99.90
51567;DHT22;37657;53.182;5.638;2023-08-20T11:35:25;23.20;99.90
51567;DHT22;37657;53.182;5.638;2023-08-20T11:37:52;23.00;99.90
51567;DHT22;37657;53.182;5.638;2023-08-20T11:40:20;22.80;99.90
51567;DHT22;37657;53.182;5.638;2023-08-20T11:42:46;22.70;99.90
51567;DHT22;37657;53.182;5.638;2023-08-20T11:45:11;22.80;99.90
51567;DHT22;37657;53.182;5.638;2023-08-20T11:47:41;23.00;99.90
51567;DHT22;37657;53.182;5.638;2023-08-20T11:50:07;23.20;99.90
51567;DHT22;37657;53.182;5.638;2023-08-20T11:52:33;23.20;99.90
51567;DHT22;37657;53.182;5.638;2023-08-20T11:55:00;23.10;99.90
51567;DHT22;37657;53.182;5.638;2023-08-20T11:57:28;23.00;99.90
51567;DHT22;37657;53.182;5.638;2023-08-20T11:59:54;23.10;99.90
51567;DHT22;37657;53.182;5.638;2023-08-20T12:02:26;23.20;99.90
51567;DHT22;37657;53.182;5.638;2023-08-20T12:04:58;23.00;99.90
51567;DHT22;37657;53.182;5.638;2023-08-20T12:07:27;23.00;99.90
51567;DHT22;37657;53.182;5.638;2023-08-20T12:09:56;23.00;99.90
51567;DHT22;37657;53.182;5.638;2023-08-20T12:12:22;23.00;99.90
51567;DHT22;37657;53.182;5.638;2023-08-20T12:14:48;23.10;99.90
51567;DHT22;37657;53.182;5.638;2023-08-20T12:17:18;23.20;99.90
51567;DHT22;37657;53.182;5.638;2023-08-20T12:19:44;23.20;99.90
51567;DHT22;37657;53.182;5.638;2023-08-20T12:22:10;23.20;99.90
51567;DHT22;37657;53.182;5.638;2023-08-20T12:24:35;23.20;99.90
51567;DHT22;37657;53.182;5.638;2023-08-20T12:27:01;23.40;99.90
51567;DHT22;37657;53.182;5.638;2023-08-20T12:29:28;23.50;99.90
51567;DHT22;37657;53.182;5.638;2023-08-20T12:31:53;23.60;99.90
51567;DHT22;37657;53.182;5.638;2023-08-20T12:34:19;23.60;99.90
51567;DHT22;37657;53.182;5.638;2023-08-20T12:36:48;23.60;99.90
51567;DHT22;37657;53.182;5.638;2023-08-20T12:39:14;23.60;99.90
51567;DHT22;37657;53.182;5.638;2023-08-20T12:41:39;23.60;99.90
51567;DHT22;37657;53.182;5.638;2023-08-20T12:44:05;23.50;99.90
51567;DHT22;37657;53.182;5.638;2023-08-20T12:46:31;23.60;99.90
51567;DHT22;37657;53.182;5.638;2023-08-20T12:48:56;23.60;99.90
51567;DHT22;37657;53.182;5.638;2023-08-20T12:51:22;23.50;99.90
51567;DHT22;37657;53.182;5.638;2023-08-20T12:53:48;23.50;99.90
51567;DHT22;37657;53.182;5.638;2023-08-20T12:56:14;23.60;99.90
51567;DHT22;37657;53.182;5.638;2023-08-20T12:58:41;23.60;99.90
51567;DHT22;37657;53.182;5.638;2023-08-20T13:01:06;23.60;99.90
51567;DHT22;37657;53.182;5.638;2023-08-20T13:03:32;23.60;99.90
51567;DHT22;37657;53.182;5.638;2023-08-20T13:05:58;23.50;99.90
51567;DHT22;37657;53.182;5.638;2023-08-20T13:08:25;23.50;99.90
51567;DHT22;37657;53.182;5.638;2023-08-20T13:10:53;23.50;99.90
51567;DHT22;37657;53.182;5.638;2023-08-20T13:13:21;23.50;99.90
51567;DHT22;37657;53.182;5.638;2023-08-20T13:15:48;23.60;99.90
51567;DHT22;37657;53.182;5.638;2023-08-20T13:18:14;23.60;99.90
51567;DHT22;37657;53.182;5.638;2023-08-20T13:20:40;23.50;99.90
51567;DHT22;37657;53.182;5.638;2023-08-20T13:23:07;23.60;99.90
51567;DHT22;37657;53.182;5.638;2023-08-20T13:25:33;23.50;99.90
51567;DHT22;37657;53.182;5.638;2023-08-20T13:27:58;23.20;99.90
51567;DHT22;37657;53.182;5.638;2023-08-20T13:30:24;23.30;99.90
51567;DHT22;37657;53.182;5.638;2023-08-20T13:32:49;23.30;99.90
51567;DHT22;37657;53.182;5.638;2023-08-20T13:35:15;23.30;99.90
51567;DHT22;37657;53.182;5.638;2023-08-20T13:37:40;23.20;99.90
51567;DHT22;37657;53.182;5.638;2023-08-20T13:40:08;23.30;99.90
51567;DHT22;37657;53.182;5.638;2023-08-20T13:42:35;23.40;99.90
51567;DHT22;37657;53.182;5.638;2023-08-20T13:45:01;23.40;99.90
51567;DHT22;37657;53.182;5.638;2023-08-20T13:47:26;23.30;99.90
51567;DHT22;37657;53.182;5.638;2023-08-20T13:49:52;23.30;99.90
51567;DHT22;37657;53.182;5.638;2023-08-20T13:52:17;23.40;99.90
51567;DHT22;37657;53.182;5.638;2023-08-20T13:54:43;23.40;99.90
51567;DHT22;37657;53.182;5.638;2023-08-20T13:57:09;23.40;99.90
51567;DHT22;37657;53.182;5.638;2023-08-20T13:59:34;23.40;99.90
51567;DHT22;37657;53.182;5.638;2023-08-20T14:02:00;23.40;99.90
51567;DHT22;37657;53.182;5.638;2023-08-20T14:04:25;23.30;99.90
51567;DHT22;37657;53.182;5.638;2023-08-20T14:06:51;23.30;99.90
51567;DHT22;37657;53.182;5.638;2023-08-20T14:09:17;23.30;99.90
51567;DHT22;37657;53.182;5.638;2023-08-20T14:11:44;23.20;99.90
51567;DHT22;37657;53.182;5.638;2023-08-20T14:14:10;23.20;99.90
51567;DHT22;37657;53.182;5.638;2023-08-20T14:16:35;23.30;99.90
51567;DHT22;37657;53.182;5.638;2023-08-20T14:19:01;23.30;99.90
51567;DHT22;37657;53.182;5.638;2023-08-20T14:21:27;23.30;99.90
51567;DHT22;37657;53.182;5.638;2023-08-20T14:23:52;23.30;99.90
51567;DHT22;37657;53.182;5.638;2023-08-20T14:26:18;23.20;99.90
51567;DHT22;37657;53.182;5.638;2023-08-20T14:28:43;23.20;99.90
51567;DHT22;37657;53.182;5.638;2023-08-20T14:31:09;23.30;99.90
51567;DHT22;37657;53.182;5.638;2023-08-20T14:33:35;23.20;99.90
51567;DHT22;37657;53.182;5.638;2023-08-20T14:36:00;23.20;99.90
51567;DHT22;37657;53.182;5.638;2023-08-20T14:38:28;23.10;99.90
51567;DHT22;37657;53.182;5.638;2023-08-20T14:40:54;23.20;99.90
51567;DHT22;37657;53.182;5.638;2023-08-20T14:43:24;23.10;99.90
51567;DHT22;37657;53.182;5.638;2023-08-20T14:45:49;23.00;99.90
51567;DHT22;37657;53.182;5.638;2023-08-20T14:48:15;23.00;99.90
51567;DHT22;37657;53.182;5.638;2023-08-20T14:50:40;23.10;99.90
51567;DHT22;37657;53.182;5.638;2023-08-20T14:53:06;23.00;99.90
51567;DHT22;37657;53.182;5.638;2023-08-20T14:55:31;23.00;99.90
51567;DHT22;37657;53.182;5.638;2023-08-20T14:57:57;23.00;99.90
51567;DHT22;37657;53.182;5.638;2023-08-20T15:00:23;22.90;99.90
51567;DHT22;37657;53.182;5.638;2023-08-20T15:02:49;23.00;99.90
51567;DHT22;37657;53.182;5.638;2023-08-20T15:05:15;22.90;99.90
51567;DHT22;37657;53.182;5.638;2023-08-20T15:07:40;23.00;99.90
51567;DHT22;37657;53.182;5.638;2023-08-20T15:10:06;22.90;99.90
51567;DHT22;37657;53.182;5.638;2023-08-20T15:12:36;22.90;99.90
51567;DHT22;37657;53.182;5.638;2023-08-20T15:15:05;22.90;99.90
51567;DHT22;37657;53.182;5.638;2023-08-20T15:17:32;23.00;99.90
51567;DHT22;37657;53.182;5.638;2023-08-20T15:19:58;23.00;99.90
51567;DHT22;37657;53.182;5.638;2023-08-20T15:22:24;23.00;99.90
51567;DHT22;37657;53.182;5.638;2023-08-20T15:24:50;23.00;99.90
51567;DHT22;37657;53.182;5.638;2023-08-20T15:27:17;23.00;99.90
51567;DHT22;37657;53.182;5.638;2023-08-20T15:29:43;22.90;99.90
51567;DHT22;37657;53.182;5.638;2023-08-20T15:32:08;22.90;99.90
51567;DHT22;37657;53.182;5.638;2023-08-20T15:34:34;22.90;99.90
51567;DHT22;37657;53.182;5.638;2023-08-20T15:37:00;22.80;99.90
51567;DHT22;37657;53.182;5.638;2023-08-20T15:39:26;22.80;99.90
51567;DHT22;37657;53.182;5.638;2023-08-20T15:41:52;22.70;99.90